AMA weather

Rick Husband Amarillo International Airport
Amarillo, Texas, United States

Public forecast

Using degrees Fahrenheit for public forecast. Weather courtesy of forecast.io.

Current aviation weather report (METAR) for Rick Husband Amarillo International Airport

Retrieved 2020/04/09 22:53 UTC (1 hour ago):

KAMA 092253Z 11011KT 10SM CLR 17/04 A3000 RMK AO2 SLP131 T01670044

Aviation forecast (TAF) for Rick Husband Amarillo International Airport

Retrieved 2020/04/09 18:34 UTC (5 hours ago):

TAF KAMA 091732Z 0918/1018 10010KT P6SM SCT090 BKN200 FM100200 11012KT P6SM FEW100 SCT250 FM100600 12012KT P6SM SCT100 BKN120